sensor_id;sensor_type;location;lat;lon;timestamp;P1;durP1;ratioP1;P2;durP2;ratioP2
77362;SDS011;66428;47.322;9.432;2023-02-18T00:01:50;6.57;;;1.83;;
77362;SDS011;66428;47.322;9.432;2023-02-18T00:04:16;3.75;;;1.30;;
77362;SDS011;66428;47.322;9.432;2023-02-18T00:06:45;3.75;;;1.60;;
77362;SDS011;66428;47.322;9.432;2023-02-18T00:09:16;5.82;;;1.92;;
77362;SDS011;66428;47.322;9.432;2023-02-18T00:11:51;4.53;;;1.50;;
77362;SDS011;66428;47.322;9.432;2023-02-18T00:14:17;5.03;;;2.75;;
77362;SDS011;66428;47.322;9.432;2023-02-18T00:16:48;3.25;;;1.75;;
77362;SDS011;66428;47.322;9.432;2023-02-18T00:19:18;3.30;;;1.73;;
77362;SDS011;66428;47.322;9.432;2023-02-18T00:21:47;4.10;;;1.83;;
77362;SDS011;66428;47.322;9.432;2023-02-18T00:24:14;4.20;;;1.83;;
77362;SDS011;66428;47.322;9.432;2023-02-18T00:26:41;7.57;;;2.30;;
77362;SDS011;66428;47.322;9.432;2023-02-18T00:29:10;5.72;;;2.10;;
77362;SDS011;66428;47.322;9.432;2023-02-18T00:31:43;5.30;;;2.65;;
77362;SDS011;66428;47.322;9.432;2023-02-18T00:34:14;7.18;;;2.47;;
77362;SDS011;66428;47.322;9.432;2023-02-18T00:36:43;6.65;;;2.70;;
77362;SDS011;66428;47.322;9.432;2023-02-18T00:39:10;15.20;;;4.50;;
77362;SDS011;66428;47.322;9.432;2023-02-18T00:41:43;22.52;;;5.93;;
77362;SDS011;66428;47.322;9.432;2023-02-18T00:44:13;15.60;;;5.10;;
77362;SDS011;66428;47.322;9.432;2023-02-18T00:46:42;14.82;;;5.18;;
77362;SDS011;66428;47.322;9.432;2023-02-18T00:49:13;10.57;;;3.25;;
77362;SDS011;66428;47.322;9.432;2023-02-18T00:51:40;4.82;;;2.25;;
77362;SDS011;66428;47.322;9.432;2023-02-18T00:54:07;4.38;;;1.83;;
77362;SDS011;66428;47.322;9.432;2023-02-18T00:56:33;6.50;;;2.03;;
77362;SDS011;66428;47.322;9.432;2023-02-18T00:59:02;3.53;;;1.92;;
77362;SDS011;66428;47.322;9.432;2023-02-18T01:01:29;5.43;;;2.53;;
77362;SDS011;66428;47.322;9.432;2023-02-18T01:03:55;3.97;;;1.98;;
77362;SDS011;66428;47.322;9.432;2023-02-18T01:06:22;7.50;;;2.15;;
77362;SDS011;66428;47.322;9.432;2023-02-18T01:08:48;7.70;;;2.80;;
77362;SDS011;66428;47.322;9.432;2023-02-18T01:11:17;4.43;;;2.03;;
77362;SDS011;66428;47.322;9.432;2023-02-18T01:13:44;5.65;;;1.95;;
77362;SDS011;66428;47.322;9.432;2023-02-18T01:16:10;5.22;;;2.17;;
77362;SDS011;66428;47.322;9.432;2023-02-18T01:18:38;4.53;;;2.22;;
77362;SDS011;66428;47.322;9.432;2023-02-18T01:21:07;4.93;;;2.28;;
77362;SDS011;66428;47.322;9.432;2023-02-18T01:23:36;5.50;;;2.45;;
77362;SDS011;66428;47.322;9.432;2023-02-18T01:26:03;7.30;;;2.22;;
77362;SDS011;66428;47.322;9.432;2023-02-18T01:28:36;5.32;;;2.50;;
77362;SDS011;66428;47.322;9.432;2023-02-18T01:31:05;4.45;;;2.45;;
77362;SDS011;66428;47.322;9.432;2023-02-18T01:33:37;4.88;;;2.60;;
77362;SDS011;66428;47.322;9.432;2023-02-18T01:36:04;5.20;;;2.72;;
77362;SDS011;66428;47.322;9.432;2023-02-18T01:38:31;5.82;;;2.75;;
77362;SDS011;66428;47.322;9.432;2023-02-18T01:41:00;6.18;;;2.70;;
77362;SDS011;66428;47.322;9.432;2023-02-18T01:43:27;8.15;;;3.17;;
77362;SDS011;66428;47.322;9.432;2023-02-18T01:45:56;3.45;;;2.08;;
77362;SDS011;66428;47.322;9.432;2023-02-18T01:48:28;5.18;;;2.33;;
77362;SDS011;66428;47.322;9.432;2023-02-18T01:51:15;5.47;;;2.42;;
77362;SDS011;66428;47.322;9.432;2023-02-18T01:56:19;5.07;;;2.33;;
77362;SDS011;66428;47.322;9.432;2023-02-18T01:58:53;3.47;;;1.90;;
77362;SDS011;66428;47.322;9.432;2023-02-18T02:01:22;5.93;;;2.75;;
77362;SDS011;66428;47.322;9.432;2023-02-18T02:03:56;5.35;;;2.80;;
77362;SDS011;66428;47.322;9.432;2023-02-18T02:06:27;5.85;;;2.60;;
77362;SDS011;66428;47.322;9.432;2023-02-18T02:08:56;3.67;;;2.17;;
77362;SDS011;66428;47.322;9.432;2023-02-18T02:11:40;5.05;;;2.45;;
77362;SDS011;66428;47.322;9.432;2023-02-18T02:34:57;8.63;;;3.25;;
77362;SDS011;66428;47.322;9.432;2023-02-18T02:46:17;3.63;;;2.25;;
77362;SDS011;66428;47.322;9.432;2023-02-18T02:51:40;4.65;;;1.92;;
77362;SDS011;66428;47.322;9.432;2023-02-18T02:54:20;3.47;;;1.67;;
77362;SDS011;66428;47.322;9.432;2023-02-18T02:56:47;4.00;;;1.77;;
77362;SDS011;66428;47.322;9.432;2023-02-18T02:59:21;3.55;;;2.38;;
77362;SDS011;66428;47.322;9.432;2023-02-18T03:04:40;3.22;;;1.70;;
77362;SDS011;66428;47.322;9.432;2023-02-18T03:17:26;3.22;;;1.98;;
77362;SDS011;66428;47.322;9.432;2023-02-18T03:20:03;3.40;;;2.72;;
77362;SDS011;66428;47.322;9.432;2023-02-18T03:22:34;5.75;;;3.08;;
77362;SDS011;66428;47.322;9.432;2023-02-18T03:25:05;4.13;;;2.15;;
77362;SDS011;66428;47.322;9.432;2023-02-18T03:30:15;3.33;;;2.33;;
77362;SDS011;66428;47.322;9.432;2023-02-18T03:32:43;4.20;;;2.45;;
77362;SDS011;66428;47.322;9.432;2023-02-18T03:35:16;5.93;;;2.70;;
77362;SDS011;66428;47.322;9.432;2023-02-18T03:37:49;7.40;;;2.50;;
77362;SDS011;66428;47.322;9.432;2023-02-18T03:40:21;4.60;;;1.70;;
77362;SDS011;66428;47.322;9.432;2023-02-18T03:45:15;3.95;;;1.80;;
77362;SDS011;66428;47.322;9.432;2023-02-18T03:47:44;3.83;;;1.80;;
77362;SDS011;66428;47.322;9.432;2023-02-18T03:50:13;3.17;;;1.90;;
77362;SDS011;66428;47.322;9.432;2023-02-18T03:52:42;3.28;;;2.00;;
77362;SDS011;66428;47.322;9.432;2023-02-18T03:55:09;3.72;;;2.00;;
77362;SDS011;66428;47.322;9.432;2023-02-18T03:57:37;3.10;;;1.77;;
77362;SDS011;66428;47.322;9.432;2023-02-18T04:02:38;5.43;;;2.10;;
77362;SDS011;66428;47.322;9.432;2023-02-18T04:07:33;4.50;;;2.10;;
77362;SDS011;66428;47.322;9.432;2023-02-18T04:10:05;4.57;;;2.38;;
77362;SDS011;66428;47.322;9.432;2023-02-18T04:12:35;3.53;;;2.50;;
77362;SDS011;66428;47.322;9.432;2023-02-18T04:17:31;6.25;;;2.67;;
77362;SDS011;66428;47.322;9.432;2023-02-18T04:19:58;3.47;;;2.05;;
77362;SDS011;66428;47.322;9.432;2023-02-18T04:22:30;3.45;;;1.85;;
77362;SDS011;66428;47.322;9.432;2023-02-18T04:27:23;5.50;;;2.17;;
77362;SDS011;66428;47.322;9.432;2023-02-18T04:29:50;3.00;;;2.10;;
77362;SDS011;66428;47.322;9.432;2023-02-18T04:32:23;4.47;;;1.92;;
77362;SDS011;66428;47.322;9.432;2023-02-18T04:34:52;3.85;;;1.80;;
77362;SDS011;66428;47.322;9.432;2023-02-18T04:37:20;3.22;;;1.75;;
77362;SDS011;66428;47.322;9.432;2023-02-18T04:39:52;3.20;;;1.83;;
77362;SDS011;66428;47.322;9.432;2023-02-18T04:42:21;4.20;;;2.13;;
77362;SDS011;66428;47.322;9.432;2023-02-18T04:44:50;3.40;;;2.17;;
77362;SDS011;66428;47.322;9.432;2023-02-18T04:47:21;3.65;;;2.03;;
77362;SDS011;66428;47.322;9.432;2023-02-18T04:49:47;6.75;;;2.42;;
77362;SDS011;66428;47.322;9.432;2023-02-18T04:52:21;4.53;;;2.22;;
77362;SDS011;66428;47.322;9.432;2023-02-18T04:54:52;5.90;;;2.30;;
77362;SDS011;66428;47.322;9.432;2023-02-18T04:57:19;5.25;;;2.47;;
77362;SDS011;66428;47.322;9.432;2023-02-18T04:59:45;4.72;;;2.60;;
77362;SDS011;66428;47.322;9.432;2023-02-18T05:02:12;6.88;;;2.70;;
77362;SDS011;66428;47.322;9.432;2023-02-18T05:04:38;6.07;;;3.38;;
77362;SDS011;66428;47.322;9.432;2023-02-18T05:07:07;6.10;;;3.10;;
77362;SDS011;66428;47.322;9.432;2023-02-18T05:09:36;7.45;;;3.83;;
77362;SDS011;66428;47.322;9.432;2023-02-18T05:12:10;5.95;;;2.65;;
77362;SDS011;66428;47.322;9.432;2023-02-18T05:14:37;5.60;;;2.50;;
77362;SDS011;66428;47.322;9.432;2023-02-18T05:17:06;4.63;;;2.70;;
77362;SDS011;66428;47.322;9.432;2023-02-18T05:21:59;4.53;;;2.60;;
77362;SDS011;66428;47.322;9.432;2023-02-18T05:24:30;4.53;;;2.25;;
77362;SDS011;66428;47.322;9.432;2023-02-18T05:29:28;4.78;;;2.15;;
77362;SDS011;66428;47.322;9.432;2023-02-18T05:31:56;3.90;;;1.90;;
77362;SDS011;66428;47.322;9.432;2023-02-18T05:36:52;4.07;;;1.80;;
77362;SDS011;66428;47.322;9.432;2023-02-18T05:41:47;4.32;;;2.28;;
77362;SDS011;66428;47.322;9.432;2023-02-18T05:44:15;3.60;;;2.25;;
77362;SDS011;66428;47.322;9.432;2023-02-18T05:47:03;5.03;;;2.72;;
77362;SDS011;66428;47.322;9.432;2023-02-18T05:49:30;5.65;;;3.10;;
77362;SDS011;66428;47.322;9.432;2023-02-18T05:51:57;6.78;;;3.45;;
77362;SDS011;66428;47.322;9.432;2023-02-18T05:54:25;8.20;;;4.03;;
77362;SDS011;66428;47.322;9.432;2023-02-18T05:56:52;4.88;;;3.00;;
77362;SDS011;66428;47.322;9.432;2023-02-18T06:01:45;7.97;;;2.72;;
77362;SDS011;66428;47.322;9.432;2023-02-18T06:06:38;4.90;;;2.95;;
77362;SDS011;66428;47.322;9.432;2023-02-18T06:11:36;6.28;;;3.05;;
77362;SDS011;66428;47.322;9.432;2023-02-18T06:14:02;7.32;;;4.15;;
77362;SDS011;66428;47.322;9.432;2023-02-18T06:16:31;8.07;;;4.28;;
77362;SDS011;66428;47.322;9.432;2023-02-18T06:19:00;5.32;;;3.20;;
77362;SDS011;66428;47.322;9.432;2023-02-18T06:21:29;7.63;;;4.72;;
77362;SDS011;66428;47.322;9.432;2023-02-18T06:24:01;5.75;;;2.53;;
77362;SDS011;66428;47.322;9.432;2023-02-18T06:26:27;6.47;;;2.95;;
77362;SDS011;66428;47.322;9.432;2023-02-18T06:28:56;7.20;;;2.80;;
77362;SDS011;66428;47.322;9.432;2023-02-18T06:31:23;5.07;;;3.05;;
77362;SDS011;66428;47.322;9.432;2023-02-18T06:33:52;8.25;;;3.80;;
77362;SDS011;66428;47.322;9.432;2023-02-18T06:38:50;5.45;;;2.53;;
77362;SDS011;66428;47.322;9.432;2023-02-18T06:43:45;4.57;;;2.38;;
77362;SDS011;66428;47.322;9.432;2023-02-18T06:46:14;6.45;;;3.75;;
77362;SDS011;66428;47.322;9.432;2023-02-18T06:51:12;9.00;;;3.58;;
77362;SDS011;66428;47.322;9.432;2023-02-18T06:53:42;5.43;;;2.80;;
77362;SDS011;66428;47.322;9.432;2023-02-18T06:56:09;5.47;;;2.88;;
77362;SDS011;66428;47.322;9.432;2023-02-18T06:58:38;5.93;;;2.60;;
77362;SDS011;66428;47.322;9.432;2023-02-18T07:01:09;6.25;;;2.78;;
77362;SDS011;66428;47.322;9.432;2023-02-18T07:06:05;7.53;;;3.00;;
77362;SDS011;66428;47.322;9.432;2023-02-18T07:08:32;7.38;;;3.28;;
77362;SDS011;66428;47.322;9.432;2023-02-18T07:11:06;6.82;;;3.15;;
77362;SDS011;66428;47.322;9.432;2023-02-18T07:13:33;12.90;;;4.22;;
77362;SDS011;66428;47.322;9.432;2023-02-18T07:15:59;7.18;;;4.72;;
77362;SDS011;66428;47.322;9.432;2023-02-18T07:18:28;7.90;;;4.05;;
77362;SDS011;66428;47.322;9.432;2023-02-18T07:20:55;10.10;;;6.43;;
77362;SDS011;66428;47.322;9.432;2023-02-18T07:23:21;8.73;;;5.22;;
77362;SDS011;66428;47.322;9.432;2023-02-18T07:25:48;6.63;;;3.20;;
77362;SDS011;66428;47.322;9.432;2023-02-18T07:28:14;6.32;;;4.68;;
77362;SDS011;66428;47.322;9.432;2023-02-18T07:30:43;5.53;;;3.35;;
77362;SDS011;66428;47.322;9.432;2023-02-18T07:35:38;6.15;;;3.35;;
77362;SDS011;66428;47.322;9.432;2023-02-18T07:38:05;6.20;;;3.15;;
77362;SDS011;66428;47.322;9.432;2023-02-18T07:40:34;6.78;;;3.85;;
77362;SDS011;66428;47.322;9.432;2023-02-18T07:43:08;6.00;;;3.90;;
77362;SDS011;66428;47.322;9.432;2023-02-18T07:45:36;6.97;;;4.20;;
77362;SDS011;66428;47.322;9.432;2023-02-18T07:48:03;11.32;;;3.75;;
77362;SDS011;66428;47.322;9.432;2023-02-18T07:50:32;6.25;;;3.05;;
77362;SDS011;66428;47.322;9.432;2023-02-18T07:53:00;9.32;;;4.35;;
77362;SDS011;66428;47.322;9.432;2023-02-18T07:55:27;6.57;;;3.75;;
77362;SDS011;66428;47.322;9.432;2023-02-18T07:58:18;7.88;;;4.13;;
77362;SDS011;66428;47.322;9.432;2023-02-18T08:00:45;10.05;;;3.70;;
77362;SDS011;66428;47.322;9.432;2023-02-18T08:03:16;5.88;;;3.00;;
77362;SDS011;66428;47.322;9.432;2023-02-18T08:05:46;5.72;;;2.92;;
77362;SDS011;66428;47.322;9.432;2023-02-18T08:08:14;5.63;;;3.53;;
77362;SDS011;66428;47.322;9.432;2023-02-18T08:10:42;5.82;;;2.83;;
77362;SDS011;66428;47.322;9.432;2023-02-18T08:13:09;6.10;;;3.25;;
77362;SDS011;66428;47.322;9.432;2023-02-18T08:15:38;4.60;;;3.00;;
77362;SDS011;66428;47.322;9.432;2023-02-18T08:18:05;4.50;;;3.00;;
77362;SDS011;66428;47.322;9.432;2023-02-18T08:20:35;4.88;;;2.45;;
77362;SDS011;66428;47.322;9.432;2023-02-18T08:23:04;3.97;;;2.65;;
77362;SDS011;66428;47.322;9.432;2023-02-18T08:25:31;4.68;;;2.58;;
77362;SDS011;66428;47.322;9.432;2023-02-18T08:28:00;6.57;;;2.75;;
77362;SDS011;66428;47.322;9.432;2023-02-18T08:30:27;4.32;;;2.38;;
77362;SDS011;66428;47.322;9.432;2023-02-18T08:32:56;4.90;;;2.42;;
77362;SDS011;66428;47.322;9.432;2023-02-18T08:35:24;3.50;;;2.25;;
77362;SDS011;66428;47.322;9.432;2023-02-18T08:40:19;6.93;;;2.92;;
77362;SDS011;66428;47.322;9.432;2023-02-18T08:45:14;6.57;;;2.80;;
77362;SDS011;66428;47.322;9.432;2023-02-18T08:50:27;5.53;;;2.47;;
77362;SDS011;66428;47.322;9.432;2023-02-18T08:52:56;3.80;;;2.38;;
77362;SDS011;66428;47.322;9.432;2023-02-18T08:55:22;5.47;;;2.80;;
77362;SDS011;66428;47.322;9.432;2023-02-18T08:57:54;5.00;;;2.58;;
77362;SDS011;66428;47.322;9.432;2023-02-18T09:00:21;3.70;;;2.40;;
77362;SDS011;66428;47.322;9.432;2023-02-18T09:02:50;3.40;;;2.67;;
77362;SDS011;66428;47.322;9.432;2023-02-18T09:05:18;4.20;;;1.98;;
77362;SDS011;66428;47.322;9.432;2023-02-18T09:07:47;3.33;;;1.70;;
77362;SDS011;66428;47.322;9.432;2023-02-18T09:10:15;4.68;;;2.00;;
77362;SDS011;66428;47.322;9.432;2023-02-18T09:12:43;4.22;;;2.20;;
77362;SDS011;66428;47.322;9.432;2023-02-18T09:15:10;4.13;;;2.05;;
77362;SDS011;66428;47.322;9.432;2023-02-18T09:17:37;4.03;;;1.88;;
77362;SDS011;66428;47.322;9.432;2023-02-18T09:20:06;3.70;;;1.83;;
77362;SDS011;66428;47.322;9.432;2023-02-18T09:22:35;3.55;;;1.40;;
77362;SDS011;66428;47.322;9.432;2023-02-18T09:25:06;4.15;;;1.65;;
77362;SDS011;66428;47.322;9.432;2023-02-18T09:27:35;3.28;;;1.70;;
77362;SDS011;66428;47.322;9.432;2023-02-18T09:30:04;3.20;;;1.90;;
77362;SDS011;66428;47.322;9.432;2023-02-18T09:32:34;2.97;;;1.67;;
77362;SDS011;66428;47.322;9.432;2023-02-18T09:35:12;5.07;;;1.95;;
77362;SDS011;66428;47.322;9.432;2023-02-18T09:37:39;3.88;;;1.90;;
77362;SDS011;66428;47.322;9.432;2023-02-18T09:40:06;2.97;;;1.60;;
77362;SDS011;66428;47.322;9.432;2023-02-18T09:42:35;7.32;;;1.90;;
77362;SDS011;66428;47.322;9.432;2023-02-18T09:45:06;4.40;;;1.77;;
77362;SDS011;66428;47.322;9.432;2023-02-18T09:47:37;5.40;;;2.00;;
77362;SDS011;66428;47.322;9.432;2023-02-18T09:50:06;2.65;;;1.63;;
77362;SDS011;66428;47.322;9.432;2023-02-18T09:52:37;3.78;;;1.50;;
77362;SDS011;66428;47.322;9.432;2023-02-18T09:57:49;2.50;;;1.60;;
77362;SDS011;66428;47.322;9.432;2023-02-18T10:00:21;2.90;;;1.50;;
77362;SDS011;66428;47.322;9.432;2023-02-18T10:02:51;3.95;;;1.88;;
77362;SDS011;66428;47.322;9.432;2023-02-18T10:05:18;3.08;;;1.63;;
77362;SDS011;66428;47.322;9.432;2023-02-18T10:07:45;2.92;;;1.58;;
77362;SDS011;66428;47.322;9.432;2023-02-18T10:10:16;2.78;;;1.55;;
77362;SDS011;66428;47.322;9.432;2023-02-18T10:12:46;5.50;;;1.60;;
77362;SDS011;66428;47.322;9.432;2023-02-18T10:15:18;5.53;;;1.65;;
77362;SDS011;66428;47.322;9.432;2023-02-18T10:17:46;3.17;;;1.65;;
77362;SDS011;66428;47.322;9.432;2023-02-18T10:20:19;4.65;;;1.80;;
77362;SDS011;66428;47.322;9.432;2023-02-18T10:22:53;5.93;;;1.77;;
77362;SDS011;66428;47.322;9.432;2023-02-18T10:25:21;4.72;;;1.70;;
77362;SDS011;66428;47.322;9.432;2023-02-18T10:27:51;2.50;;;1.50;;
77362;SDS011;66428;47.322;9.432;2023-02-18T10:30:22;3.40;;;1.83;;
77362;SDS011;66428;47.322;9.432;2023-02-18T10:33:00;4.38;;;1.95;;
77362;SDS011;66428;47.322;9.432;2023-02-18T10:35:30;4.05;;;1.73;;
77362;SDS011;66428;47.322;9.432;2023-02-18T10:43:35;3.10;;;1.60;;
77362;SDS011;66428;47.322;9.432;2023-02-18T10:51:33;5.60;;;1.70;;
77362;SDS011;66428;47.322;9.432;2023-02-18T10:54:00;6.72;;;2.03;;
77362;SDS011;66428;47.322;9.432;2023-02-18T10:57:01;2.80;;;1.73;;
77362;SDS011;66428;47.322;9.432;2023-02-18T10:59:23;4.38;;;2.00;;
77362;SDS011;66428;47.322;9.432;2023-02-18T11:01:59;3.63;;;1.92;;
77362;SDS011;66428;47.322;9.432;2023-02-18T11:04:33;5.57;;;2.00;;
77362;SDS011;66428;47.322;9.432;2023-02-18T11:07:11;5.68;;;2.75;;
77362;SDS011;66428;47.322;9.432;2023-02-18T11:09:53;3.15;;;2.10;;
77362;SDS011;66428;47.322;9.432;2023-02-18T11:12:23;5.35;;;2.08;;
77362;SDS011;66428;47.322;9.432;2023-02-18T11:17:32;6.45;;;2.35;;
77362;SDS011;66428;47.322;9.432;2023-02-18T11:20:04;4.80;;;2.65;;
77362;SDS011;66428;47.322;9.432;2023-02-18T11:22:44;4.70;;;2.45;;
77362;SDS011;66428;47.322;9.432;2023-02-18T11:25:52;3.63;;;1.85;;
77362;SDS011;66428;47.322;9.432;2023-02-18T11:30:38;6.13;;;2.25;;
77362;SDS011;66428;47.322;9.432;2023-02-18T11:33:19;4.50;;;2.45;;
77362;SDS011;66428;47.322;9.432;2023-02-18T11:35:53;3.08;;;1.75;;
77362;SDS011;66428;47.322;9.432;2023-02-18T11:41:18;4.68;;;2.22;;
77362;SDS011;66428;47.322;9.432;2023-02-18T11:43:49;6.25;;;2.00;;
77362;SDS011;66428;47.322;9.432;2023-02-18T11:46:21;3.92;;;2.17;;
77362;SDS011;66428;47.322;9.432;2023-02-18T11:48:50;4.65;;;1.95;;
77362;SDS011;66428;47.322;9.432;2023-02-18T11:51:24;6.05;;;2.03;;
77362;SDS011;66428;47.322;9.432;2023-02-18T11:54:03;4.35;;;2.53;;
77362;SDS011;66428;47.322;9.432;2023-02-18T11:56:31;3.90;;;1.70;;
77362;SDS011;66428;47.322;9.432;2023-02-18T11:58:58;5.15;;;2.55;;
77362;SDS011;66428;47.322;9.432;2023-02-18T12:01:35;3.13;;;1.70;;
77362;SDS011;66428;47.322;9.432;2023-02-18T12:06:42;3.78;;;2.17;;
77362;SDS011;66428;47.322;9.432;2023-02-18T12:11:55;3.70;;;1.80;;
77362;SDS011;66428;47.322;9.432;2023-02-18T12:14:28;5.97;;;3.70;;
77362;SDS011;66428;47.322;9.432;2023-02-18T12:27:40;2.70;;;1.67;;
77362;SDS011;66428;47.322;9.432;2023-02-18T12:56:17;3.75;;;1.80;;
77362;SDS011;66428;47.322;9.432;2023-02-18T13:09:17;4.00;;;1.98;;
77362;SDS011;66428;47.322;9.432;2023-02-18T13:11:58;4.15;;;1.80;;
77362;SDS011;66428;47.322;9.432;2023-02-18T13:14:30;3.35;;;1.63;;
77362;SDS011;66428;47.322;9.432;2023-02-18T13:16:59;3.22;;;1.80;;
77362;SDS011;66428;47.322;9.432;2023-02-18T13:22:00;3.58;;;1.83;;
77362;SDS011;66428;47.322;9.432;2023-02-18T13:27:15;3.75;;;2.00;;
77362;SDS011;66428;47.322;9.432;2023-02-18T13:32:32;2.85;;;1.48;;
77362;SDS011;66428;47.322;9.432;2023-02-18T13:38:02;4.65;;;1.70;;
77362;SDS011;66428;47.322;9.432;2023-02-18T13:40:32;3.33;;;1.60;;
77362;SDS011;66428;47.322;9.432;2023-02-18T13:48:43;2.80;;;1.08;;
77362;SDS011;66428;47.322;9.432;2023-02-18T13:51:12;4.38;;;1.70;;
77362;SDS011;66428;47.322;9.432;2023-02-18T13:53:42;2.65;;;1.60;;
77362;SDS011;66428;47.322;9.432;2023-02-18T13:56:22;5.28;;;2.00;;
77362;SDS011;66428;47.322;9.432;2023-02-18T14:01:40;4.60;;;1.75;;
77362;SDS011;66428;47.322;9.432;2023-02-18T14:09:41;3.63;;;1.90;;
77362;SDS011;66428;47.322;9.432;2023-02-18T14:14:57;4.85;;;1.75;;
77362;SDS011;66428;47.322;9.432;2023-02-18T14:22:32;3.25;;;1.70;;
77362;SDS011;66428;47.322;9.432;2023-02-18T14:27:33;4.45;;;2.03;;
77362;SDS011;66428;47.322;9.432;2023-02-18T14:30:15;2.85;;;1.63;;
77362;SDS011;66428;47.322;9.432;2023-02-18T14:32:43;5.35;;;1.80;;
77362;SDS011;66428;47.322;9.432;2023-02-18T14:38:29;4.13;;;1.67;;
77362;SDS011;66428;47.322;9.432;2023-02-18T14:43:16;3.97;;;1.55;;
77362;SDS011;66428;47.322;9.432;2023-02-18T14:50:47;7.32;;;2.20;;
77362;SDS011;66428;47.322;9.432;2023-02-18T14:53:19;3.63;;;1.50;;
77362;SDS011;66428;47.322;9.432;2023-02-18T14:55:50;4.78;;;1.55;;
77362;SDS011;66428;47.322;9.432;2023-02-18T14:58:29;2.67;;;1.20;;
77362;SDS011;66428;47.322;9.432;2023-02-18T15:03:34;4.30;;;1.73;;
77362;SDS011;66428;47.322;9.432;2023-02-18T15:08:51;3.63;;;1.80;;
77362;SDS011;66428;47.322;9.432;2023-02-18T15:11:18;5.20;;;1.92;;
77362;SDS011;66428;47.322;9.432;2023-02-18T15:13:47;3.35;;;1.75;;
77362;SDS011;66428;47.322;9.432;2023-02-18T15:16:16;4.53;;;2.17;;
77362;SDS011;66428;47.322;9.432;2023-02-18T15:18:48;3.97;;;2.03;;
77362;SDS011;66428;47.322;9.432;2023-02-18T15:23:52;4.15;;;1.52;;
77362;SDS011;66428;47.322;9.432;2023-02-18T15:26:18;4.28;;;1.63;;
77362;SDS011;66428;47.322;9.432;2023-02-18T15:28:58;5.28;;;1.90;;
77362;SDS011;66428;47.322;9.432;2023-02-18T15:31:27;3.97;;;1.83;;
77362;SDS011;66428;47.322;9.432;2023-02-18T15:33:54;3.50;;;1.90;;
77362;SDS011;66428;47.322;9.432;2023-02-18T15:36:24;2.85;;;1.73;;
77362;SDS011;66428;47.322;9.432;2023-02-18T15:38:51;4.55;;;2.03;;
77362;SDS011;66428;47.322;9.432;2023-02-18T15:41:19;3.85;;;1.80;;
77362;SDS011;66428;47.322;9.432;2023-02-18T15:43:56;4.22;;;1.88;;
77362;SDS011;66428;47.322;9.432;2023-02-18T15:46:30;4.65;;;1.88;;
77362;SDS011;66428;47.322;9.432;2023-02-18T15:48:57;5.35;;;2.53;;
77362;SDS011;66428;47.322;9.432;2023-02-18T15:51:27;3.45;;;2.40;;
77362;SDS011;66428;47.322;9.432;2023-02-18T15:53:57;5.10;;;2.22;;
77362;SDS011;66428;47.322;9.432;2023-02-18T15:56:37;3.63;;;2.22;;
77362;SDS011;66428;47.322;9.432;2023-02-18T16:01:54;4.00;;;2.33;;
77362;SDS011;66428;47.322;9.432;2023-02-18T16:04:27;3.85;;;2.30;;
77362;SDS011;66428;47.322;9.432;2023-02-18T16:06:55;5.43;;;2.50;;
77362;SDS011;66428;47.322;9.432;2023-02-18T16:09:33;6.28;;;2.28;;
77362;SDS011;66428;47.322;9.432;2023-02-18T16:12:02;4.00;;;2.17;;
77362;SDS011;66428;47.322;9.432;2023-02-18T16:14:43;4.32;;;2.22;;
77362;SDS011;66428;47.322;9.432;2023-02-18T16:19:59;9.13;;;2.65;;
77362;SDS011;66428;47.322;9.432;2023-02-18T16:25:01;6.63;;;2.58;;
77362;SDS011;66428;47.322;9.432;2023-02-18T16:27:46;3.55;;;2.17;;
77362;SDS011;66428;47.322;9.432;2023-02-18T16:30:23;4.18;;;2.47;;
77362;SDS011;66428;47.322;9.432;2023-02-18T16:32:50;4.65;;;2.53;;
77362;SDS011;66428;47.322;9.432;2023-02-18T16:35:22;4.45;;;2.83;;
77362;SDS011;66428;47.322;9.432;2023-02-18T16:37:49;4.18;;;2.33;;
77362;SDS011;66428;47.322;9.432;2023-02-18T16:43:02;6.35;;;3.08;;
77362;SDS011;66428;47.322;9.432;2023-02-18T16:45:35;5.03;;;2.50;;
77362;SDS011;66428;47.322;9.432;2023-02-18T16:48:05;4.93;;;3.13;;
77362;SDS011;66428;47.322;9.432;2023-02-18T16:50:34;5.43;;;2.70;;
77362;SDS011;66428;47.322;9.432;2023-02-18T16:53:03;5.00;;;2.28;;
77362;SDS011;66428;47.322;9.432;2023-02-18T16:55:34;5.28;;;2.85;;
77362;SDS011;66428;47.322;9.432;2023-02-18T16:58:03;5.05;;;2.80;;
77362;SDS011;66428;47.322;9.432;2023-02-18T17:00:30;5.68;;;2.72;;
77362;SDS011;66428;47.322;9.432;2023-02-18T17:02:57;14.13;;;7.88;;
77362;SDS011;66428;47.322;9.432;2023-02-18T17:05:28;7.72;;;5.40;;
77362;SDS011;66428;47.322;9.432;2023-02-18T17:08:05;22.35;;;15.98;;
77362;SDS011;66428;47.322;9.432;2023-02-18T17:10:40;26.38;;;23.58;;
77362;SDS011;66428;47.322;9.432;2023-02-18T17:13:18;18.10;;;14.20;;
77362;SDS011;66428;47.322;9.432;2023-02-18T17:15:45;23.30;;;10.82;;
77362;SDS011;66428;47.322;9.432;2023-02-18T17:18:15;14.88;;;7.57;;
77362;SDS011;66428;47.322;9.432;2023-02-18T17:20:42;11.00;;;4.65;;
77362;SDS011;66428;47.322;9.432;2023-02-18T17:23:14;9.50;;;4.28;;
77362;SDS011;66428;47.322;9.432;2023-02-18T17:25:41;8.43;;;4.05;;
77362;SDS011;66428;47.322;9.432;2023-02-18T17:28:08;9.80;;;4.72;;
77362;SDS011;66428;47.322;9.432;2023-02-18T17:30:35;6.20;;;4.03;;
77362;SDS011;66428;47.322;9.432;2023-02-18T17:33:03;7.07;;;3.47;;
77362;SDS011;66428;47.322;9.432;2023-02-18T17:35:34;7.05;;;3.58;;
77362;SDS011;66428;47.322;9.432;2023-02-18T17:38:07;7.55;;;3.83;;
77362;SDS011;66428;47.322;9.432;2023-02-18T17:40:35;5.72;;;3.47;;
77362;SDS011;66428;47.322;9.432;2023-02-18T17:43:01;6.22;;;3.03;;
77362;SDS011;66428;47.322;9.432;2023-02-18T17:45:32;7.20;;;3.72;;
77362;SDS011;66428;47.322;9.432;2023-02-18T17:48:00;6.60;;;3.50;;
77362;SDS011;66428;47.322;9.432;2023-02-18T17:50:30;7.25;;;3.35;;
77362;SDS011;66428;47.322;9.432;2023-02-18T17:52:57;6.95;;;4.20;;
77362;SDS011;66428;47.322;9.432;2023-02-18T17:55:28;5.47;;;3.33;;
77362;SDS011;66428;47.322;9.432;2023-02-18T17:57:54;9.63;;;3.95;;
77362;SDS011;66428;47.322;9.432;2023-02-18T18:00:33;5.00;;;3.20;;
77362;SDS011;66428;47.322;9.432;2023-02-18T18:03:00;8.25;;;3.75;;
77362;SDS011;66428;47.322;9.432;2023-02-18T18:05:28;8.63;;;4.68;;
77362;SDS011;66428;47.322;9.432;2023-02-18T18:07:55;8.88;;;3.60;;
77362;SDS011;66428;47.322;9.432;2023-02-18T18:10:22;5.47;;;3.28;;
77362;SDS011;66428;47.322;9.432;2023-02-18T18:12:53;5.50;;;3.55;;
77362;SDS011;66428;47.322;9.432;2023-02-18T18:17:51;6.45;;;3.53;;
77362;SDS011;66428;47.322;9.432;2023-02-18T18:20:20;7.38;;;4.05;;
77362;SDS011;66428;47.322;9.432;2023-02-18T18:22:48;7.03;;;3.60;;
77362;SDS011;66428;47.322;9.432;2023-02-18T18:25:19;5.32;;;3.53;;
77362;SDS011;66428;47.322;9.432;2023-02-18T18:27:49;6.63;;;3.70;;
77362;SDS011;66428;47.322;9.432;2023-02-18T18:30:21;8.30;;;4.05;;
77362;SDS011;66428;47.322;9.432;2023-02-18T18:32:48;6.63;;;4.13;;
77362;SDS011;66428;47.322;9.432;2023-02-18T18:35:18;6.22;;;3.42;;
77362;SDS011;66428;47.322;9.432;2023-02-18T18:37:48;5.22;;;3.65;;
77362;SDS011;66428;47.322;9.432;2023-02-18T18:40:20;8.13;;;3.55;;
77362;SDS011;66428;47.322;9.432;2023-02-18T18:42:47;7.57;;;3.92;;
77362;SDS011;66428;47.322;9.432;2023-02-18T18:45:21;7.35;;;3.60;;
77362;SDS011;66428;47.322;9.432;2023-02-18T18:47:48;6.22;;;3.83;;
77362;SDS011;66428;47.322;9.432;2023-02-18T18:50:15;6.85;;;3.40;;
77362;SDS011;66428;47.322;9.432;2023-02-18T18:52:42;6.88;;;4.22;;
77362;SDS011;66428;47.322;9.432;2023-02-18T18:57:54;7.63;;;4.32;;
77362;SDS011;66428;47.322;9.432;2023-02-18T19:00:40;6.60;;;4.03;;
77362;SDS011;66428;47.322;9.432;2023-02-18T19:03:11;5.35;;;3.80;;
77362;SDS011;66428;47.322;9.432;2023-02-18T19:05:40;6.18;;;4.00;;
77362;SDS011;66428;47.322;9.432;2023-02-18T19:08:12;7.32;;;4.18;;
77362;SDS011;66428;47.322;9.432;2023-02-18T19:10:41;12.27;;;3.85;;